Vincent, Alabama
Current Conditions -  °F | °C
As of 10:15 PM on Sunday 23 Nov 2014 (Local Time) from KSCD Reporting Station
Overcast Overcast  
Wind Chill: 17°   Ceiling: 1800
Heat Index: 17°   Visibility: 10mi
Dew Point: 16°   Wind: 10mph
Humidity: 93%   Direction: 220°SW
Pressure: 29.71"   Gusts: NA
Location:  33.38°N, 86.41°W
Report Text: KSCD 240415Z AUTO 22009KT 10SM OVC018 17/16 A2971 RMK AO2 T01700158
Loading
Personal Weather Stations






























Interactive Weather Map New forecast layout! Learn more

10-Day Weather Forecast

Advertisements
Track Severe Weather on mobile